createdAt,value
2022-10-23T00:01:20.494Z,7.13
2022-10-23T00:03:48.146Z,7.10
2022-10-23T00:06:14.890Z,6.57
2022-10-23T00:08:42.145Z,6.60
2022-10-23T00:11:14.418Z,6.38
2022-10-23T00:13:41.072Z,6.38
2022-10-23T00:16:08.569Z,7.95
2022-10-23T00:18:35.572Z,8.75
2022-10-23T00:21:02.636Z,7.82
2022-10-23T00:23:29.408Z,7.60
2022-10-23T00:25:56.080Z,7.75
2022-10-23T00:28:22.925Z,7.13
2022-10-23T00:30:49.578Z,6.70
2022-10-23T00:33:16.358Z,6.40
2022-10-23T00:35:43.444Z,6.32
2022-10-23T00:38:10.905Z,7.05
2022-10-23T00:40:39.253Z,7.07
2022-10-23T00:43:07.161Z,7.68
2022-10-23T00:45:34.328Z,8.02
2022-10-23T00:48:02.171Z,6.75
2022-10-23T00:50:32.366Z,8.07
2022-10-23T00:53:01.915Z,10.25
2022-10-23T00:55:30.324Z,10.10
2022-10-23T00:57:56.913Z,8.10
2022-10-23T01:00:40.364Z,7.05
2022-10-23T01:03:07.512Z,6.13
2022-10-23T01:06:04.911Z,6.30
2022-10-23T01:08:34.749Z,7.20
2022-10-23T01:11:01.278Z,8.07
2022-10-23T01:13:38.928Z,6.50
2022-10-23T01:16:13.944Z,7.20
2022-10-23T01:18:56.706Z,6.95
2022-10-23T01:21:52.681Z,7.47
2022-10-23T01:24:25.309Z,6.50
2022-10-23T01:27:20.078Z,6.32
2022-10-23T01:29:59.673Z,5.78
2022-10-23T01:32:44.505Z,5.80
2022-10-23T01:35:17.398Z,8.45
2022-10-23T01:38:13.480Z,6.03
2022-10-23T01:40:50.562Z,6.57
2022-10-23T01:43:24.646Z,7.22
2022-10-23T01:46:00.305Z,5.07
2022-10-23T01:48:29.597Z,5.80
2022-10-23T01:51:00.261Z,5.18
2022-10-23T01:53:31.130Z,5.85
2022-10-23T01:56:01.071Z,6.30
2022-10-23T01:58:30.162Z,7.20
2022-10-23T02:01:01.332Z,5.45
2022-10-23T02:03:30.922Z,4.97
2022-10-23T02:05:58.002Z,6.45
2022-10-23T02:08:25.695Z,5.68
2022-10-23T02:11:04.247Z,5.63
2022-10-23T02:13:44.066Z,5.75
2022-10-23T02:16:47.198Z,4.97
2022-10-23T02:19:35.429Z,4.65
2022-10-23T02:22:16.700Z,4.32
2022-10-23T02:24:54.233Z,4.55
2022-10-23T02:27:31.888Z,3.72
2022-10-23T02:30:10.227Z,4.50
2022-10-23T02:32:41.682Z,4.25
2022-10-23T02:35:11.352Z,3.55
2022-10-23T02:37:38.070Z,3.28
2022-10-23T02:40:08.193Z,4.03
2022-10-23T02:43:13.054Z,4.70
2022-10-23T02:45:58.854Z,4.68
2022-10-23T02:48:39.168Z,4.97
2022-10-23T02:54:12.417Z,3.92
2022-10-23T02:57:04.050Z,3.63
2022-10-23T02:59:57.206Z,3.28
2022-10-23T03:02:44.055Z,4.22
2022-10-23T03:05:18.306Z,3.25
2022-10-23T03:07:46.116Z,4.50
2022-10-23T03:10:13.098Z,4.97
2022-10-23T03:12:40.389Z,4.28
2022-10-23T03:15:08.574Z,4.03
2022-10-23T03:17:35.227Z,5.00
2022-10-23T03:20:02.521Z,4.22
2022-10-23T03:22:29.101Z,4.60
2022-10-23T03:24:56.269Z,4.70
2022-10-23T03:27:22.883Z,3.72
2022-10-23T03:29:49.499Z,4.40
2022-10-23T03:32:17.429Z,4.88
2022-10-23T03:34:44.636Z,3.92
2022-10-23T03:37:11.390Z,3.90
2022-10-23T03:39:37.954Z,3.63
2022-10-23T03:42:04.571Z,3.42
2022-10-23T03:44:31.648Z,3.40
2022-10-23T03:46:58.389Z,4.38
2022-10-23T03:49:25.205Z,4.85
2022-10-23T03:51:52.551Z,5.25
2022-10-23T03:54:23.082Z,6.20
2022-10-23T03:56:52.516Z,3.45
2022-10-23T03:59:22.030Z,5.67
2022-10-23T04:01:49.525Z,4.68
2022-10-23T04:04:16.305Z,3.67
2022-10-23T04:06:43.520Z,3.92
2022-10-23T04:11:42.166Z,4.25
2022-10-23T04:14:12.315Z,5.65
2022-10-23T04:16:39.269Z,4.32
2022-10-23T04:19:06.273Z,6.25
2022-10-23T04:21:32.955Z,4.50
2022-10-23T04:24:00.767Z,3.97
2022-10-23T04:26:27.464Z,3.38
2022-10-23T04:28:54.028Z,2.63
2022-10-23T04:31:20.783Z,3.95
2022-10-23T04:33:47.435Z,3.70
2022-10-23T04:36:27.329Z,3.83
2022-10-23T04:38:53.887Z,4.00
2022-10-23T04:41:20.626Z,4.40
2022-10-23T04:43:47.301Z,3.83
2022-10-23T04:46:14.967Z,3.30
2022-10-23T04:48:45.241Z,3.13
2022-10-23T04:51:20.737Z,3.80
2022-10-23T04:53:57.930Z,2.70
2022-10-23T04:56:44.805Z,2.67
2022-10-23T04:59:15.695Z,2.67
2022-10-23T05:01:42.596Z,2.53
2022-10-23T05:04:09.758Z,3.20
2022-10-23T05:07:05.427Z,2.75
2022-10-23T05:09:50.346Z,2.85
2022-10-23T05:12:30.308Z,3.40
2022-10-23T05:14:56.990Z,3.25
2022-10-23T05:17:32.166Z,2.92
2022-10-23T05:20:01.606Z,3.10
2022-10-23T05:22:32.480Z,3.67
2022-10-23T05:25:01.912Z,7.18
2022-10-23T05:27:32.770Z,5.90
2022-10-23T05:29:59.452Z,6.35
2022-10-23T05:32:31.678Z,6.63
2022-10-23T05:35:01.243Z,4.88
2022-10-23T05:37:29.837Z,4.50
2022-10-23T05:40:08.472Z,4.65
2022-10-23T05:42:39.566Z,4.78
2022-10-23T05:45:08.674Z,4.45
2022-10-23T05:48:10.604Z,4.45
2022-10-23T05:51:24.930Z,4.20
2022-10-23T05:54:08.314Z,3.92
2022-10-23T05:56:43.118Z,4.28
2022-10-23T05:59:22.130Z,3.95
2022-10-23T06:01:53.092Z,3.92
2022-10-23T06:04:35.265Z,4.85
2022-10-23T06:07:29.190Z,5.40
2022-10-23T06:09:59.585Z,3.67
2022-10-23T06:12:26.926Z,3.70
2022-10-23T06:14:53.614Z,4.00
2022-10-23T06:17:24.450Z,3.92
2022-10-23T06:19:51.179Z,3.72
2022-10-23T06:22:21.211Z,4.65
2022-10-23T06:24:53.850Z,3.75
2022-10-23T06:27:26.373Z,3.72
2022-10-23T06:29:54.362Z,3.95
2022-10-23T06:32:20.944Z,7.13
2022-10-23T06:35:00.558Z,6.47
2022-10-23T06:37:28.578Z,6.35
2022-10-23T06:40:06.280Z,3.80
2022-10-23T06:42:57.732Z,3.97
2022-10-23T06:45:43.012Z,3.58
2022-10-23T06:48:32.730Z,4.38
2022-10-23T06:51:09.369Z,4.28
2022-10-23T06:53:41.915Z,4.90
2022-10-23T06:56:29.076Z,5.22
2022-10-23T06:58:56.566Z,5.75
2022-10-23T07:01:23.962Z,6.70
2022-10-23T07:03:50.771Z,6.32
2022-10-23T07:06:22.073Z,5.47
2022-10-23T07:08:49.656Z,4.45
2022-10-23T07:11:45.515Z,4.43
2022-10-23T07:14:12.738Z,4.03
2022-10-23T07:16:40.077Z,4.25
2022-10-23T07:19:08.826Z,3.80
2022-10-23T07:22:15.876Z,4.10
2022-10-23T07:24:42.805Z,4.97
2022-10-23T07:27:29.686Z,3.45
2022-10-23T07:30:00.657Z,4.63
2022-10-23T07:32:31.855Z,3.47
2022-10-23T07:35:17.697Z,3.63
2022-10-23T07:38:00.492Z,3.70
2022-10-23T07:40:30.467Z,3.67
2022-10-23T07:42:57.373Z,4.60
2022-10-23T07:45:25.002Z,3.58
2022-10-23T07:47:52.570Z,4.38
2022-10-23T07:50:21.595Z,3.80
2022-10-23T07:52:48.652Z,3.78
2022-10-23T07:55:17.613Z,4.40
2022-10-23T07:57:48.847Z,4.30
2022-10-23T08:00:41.339Z,3.67
2022-10-23T08:03:25.992Z,4.05
2022-10-23T08:05:54.796Z,3.88
2022-10-23T08:08:23.806Z,3.88
2022-10-23T08:10:55.119Z,4.20
2022-10-23T08:13:27.193Z,4.38
2022-10-23T08:16:02.347Z,4.78
2022-10-23T08:18:52.362Z,5.18
2022-10-23T08:21:19.594Z,4.47
2022-10-23T08:23:47.837Z,5.45
2022-10-23T08:26:15.444Z,5.90
2022-10-23T08:28:42.046Z,6.70
2022-10-23T08:31:15.399Z,5.80
2022-10-23T08:33:52.876Z,6.50
2022-10-23T08:36:26.851Z,7.72
2022-10-23T08:38:55.607Z,6.30
2022-10-23T08:41:30.182Z,5.72
2022-10-23T08:44:05.458Z,5.28
2022-10-23T08:46:49.822Z,5.57
2022-10-23T08:50:14.241Z,6.05
2022-10-23T08:53:02.670Z,5.60
2022-10-23T08:56:01.716Z,6.05
2022-10-23T08:58:58.946Z,5.40
2022-10-23T09:01:40.661Z,4.93
2022-10-23T09:04:12.527Z,5.05
2022-10-23T09:06:41.859Z,5.35
2022-10-23T09:12:41.931Z,7.15
2022-10-23T09:15:34.944Z,6.65
2022-10-23T09:20:35.446Z,7.20
2022-10-23T09:23:12.677Z,6.93
2022-10-23T09:25:41.069Z,6.55
2022-10-23T09:28:21.577Z,6.50
2022-10-23T09:30:49.528Z,6.28
2022-10-23T09:33:27.229Z,5.53
2022-10-23T09:36:02.587Z,5.53
2022-10-23T09:38:33.808Z,4.82
2022-10-23T09:41:21.387Z,5.40
2022-10-23T09:43:59.339Z,5.30
2022-10-23T09:46:46.134Z,5.05
2022-10-23T09:49:27.347Z,6.68
2022-10-23T09:52:12.236Z,6.68
2022-10-23T09:54:43.953Z,6.10
2022-10-23T09:57:23.446Z,7.00
2022-10-23T09:59:56.678Z,6.22
2022-10-23T10:02:32.511Z,5.85
2022-10-23T10:05:33.043Z,5.90
2022-10-23T10:08:10.762Z,5.22
2022-10-23T10:10:48.273Z,5.85
2022-10-23T10:13:33.025Z,5.85
2022-10-23T10:16:11.895Z,5.63
2022-10-23T10:18:56.302Z,5.10
2022-10-23T10:21:38.940Z,5.55
2022-10-23T10:24:25.375Z,5.88
2022-10-23T10:27:10.330Z,6.00
2022-10-23T10:29:51.957Z,5.65
2022-10-23T10:32:46.334Z,5.50
2022-10-23T10:35:19.082Z,5.18
2022-10-23T10:37:55.028Z,5.03
2022-10-23T10:40:32.642Z,5.00
2022-10-23T10:43:08.405Z,4.80
2022-10-23T10:45:48.074Z,5.00
2022-10-23T10:48:25.839Z,4.20
2022-10-23T10:51:21.670Z,4.18
2022-10-23T10:54:09.232Z,4.90
2022-10-23T10:56:40.618Z,4.28
2022-10-23T10:59:23.590Z,4.60
2022-10-23T11:02:05.682Z,4.30
2022-10-23T11:04:40.915Z,4.30
2022-10-23T11:07:14.295Z,3.72
2022-10-23T11:09:42.631Z,4.20
2022-10-23T11:12:27.426Z,3.58
2022-10-23T11:14:54.172Z,4.18
2022-10-23T11:17:37.335Z,3.63
2022-10-23T11:20:14.090Z,3.63
2022-10-23T11:22:52.628Z,2.58
2022-10-23T11:25:25.051Z,2.60
2022-10-23T11:28:18.558Z,2.58
2022-10-23T11:31:02.766Z,2.47
2022-10-23T11:33:44.865Z,2.45
2022-10-23T11:36:18.070Z,2.33
2022-10-23T11:38:50.972Z,2.13
2022-10-23T11:43:57.242Z,2.20
2022-10-23T11:46:25.342Z,2.45
2022-10-23T11:48:53.839Z,2.15
2022-10-23T11:51:28.166Z,1.92
2022-10-23T11:54:24.867Z,1.88
2022-10-23T11:56:51.583Z,1.90
2022-10-23T11:59:33.275Z,1.60
2022-10-23T12:02:03.320Z,1.63
2022-10-23T12:04:41.107Z,1.90
2022-10-23T12:07:23.829Z,1.50
2022-10-23T12:09:53.257Z,1.45
2022-10-23T12:12:42.442Z,2.28
2022-10-23T12:15:12.057Z,1.38
2022-10-23T12:17:40.223Z,1.40
2022-10-23T12:20:22.704Z,1.20
2022-10-23T12:25:55.829Z,1.10
2022-10-23T12:28:40.276Z,0.77
2022-10-23T12:31:29.980Z,0.90
2022-10-23T12:34:07.398Z,0.80
2022-10-23T12:36:45.996Z,1.02
2022-10-23T12:39:37.355Z,0.88
2022-10-23T12:42:05.030Z,0.85
2022-10-23T12:44:32.031Z,1.08
2022-10-23T12:47:02.066Z,0.80
2022-10-23T12:49:33.619Z,0.73
2022-10-23T12:54:30.561Z,0.93
2022-10-23T12:56:57.413Z,0.80
2022-10-23T12:59:33.271Z,0.80
2022-10-23T13:02:00.260Z,0.70
2022-10-23T13:04:30.231Z,1.23
2022-10-23T13:06:59.840Z,0.98
2022-10-23T13:09:33.762Z,1.02
2022-10-23T13:12:24.532Z,0.82
2022-10-23T13:15:08.052Z,0.98
2022-10-23T13:17:44.170Z,0.90
2022-10-23T13:20:11.128Z,1.27
2022-10-23T13:22:40.661Z,1.10
2022-10-23T13:25:26.164Z,0.95
2022-10-23T13:28:11.667Z,1.30
2022-10-23T13:30:48.186Z,1.27
2022-10-23T13:33:35.196Z,1.20
2022-10-23T13:36:23.153Z,1.13
2022-10-23T13:38:59.195Z,1.38
2022-10-23T13:41:28.083Z,1.30
2022-10-23T13:43:54.732Z,1.40
2022-10-23T13:46:24.395Z,1.33
2022-10-23T13:48:51.493Z,1.20
2022-10-23T13:51:28.297Z,1.27
2022-10-23T13:53:57.110Z,1.65
2022-10-23T13:56:27.746Z,1.40
2022-10-23T13:58:54.601Z,1.77
2022-10-23T14:01:28.321Z,1.40
2022-10-23T14:03:56.741Z,1.35
2022-10-23T14:06:24.122Z,1.50
2022-10-23T14:08:51.152Z,1.70
2022-10-23T14:11:19.857Z,1.70
2022-10-23T14:13:46.964Z,1.20
2022-10-23T14:16:18.005Z,1.30
2022-10-23T14:18:44.773Z,1.67
2022-10-23T14:21:14.138Z,1.60
2022-10-23T14:23:40.755Z,1.40
2022-10-23T14:26:10.390Z,1.23
2022-10-23T14:28:37.627Z,2.10
2022-10-23T14:31:06.070Z,1.42
2022-10-23T14:33:32.805Z,1.70
2022-10-23T14:36:00.055Z,1.63
2022-10-23T14:38:27.215Z,1.60
2022-10-23T14:40:53.907Z,1.60
2022-10-23T14:43:21.327Z,1.50
2022-10-23T14:45:47.915Z,1.70
2022-10-23T14:48:14.546Z,1.70
2022-10-23T14:50:46.580Z,1.80
2022-10-23T14:53:14.034Z,1.80
2022-10-23T14:55:40.628Z,2.05
2022-10-23T14:58:07.229Z,2.53
2022-10-23T15:00:33.823Z,2.92
2022-10-23T15:03:00.567Z,3.08
2022-10-23T15:05:29.294Z,3.70
2022-10-23T15:07:56.557Z,3.35
2022-10-23T15:10:23.125Z,3.42
2022-10-23T15:12:49.726Z,3.08
2022-10-23T15:15:16.789Z,2.58
2022-10-23T15:17:43.755Z,2.88
2022-10-23T15:20:10.677Z,3.30
2022-10-23T15:22:37.271Z,3.15
2022-10-23T15:25:04.135Z,3.53
2022-10-23T15:27:30.768Z,3.33
2022-10-23T15:29:57.383Z,3.20
2022-10-23T15:32:23.998Z,2.92
2022-10-23T15:34:52.062Z,3.15
2022-10-23T15:37:18.667Z,3.28
2022-10-23T15:39:45.286Z,3.50
2022-10-23T15:42:12.434Z,3.17
2022-10-23T15:44:40.224Z,3.88
2022-10-23T15:47:07.196Z,4.95
2022-10-23T15:49:34.067Z,4.93
2022-10-23T15:52:00.947Z,5.47
2022-10-23T15:54:30.625Z,6.80
2022-10-23T15:56:59.699Z,8.00
2022-10-23T15:59:26.951Z,6.70
2022-10-23T16:01:54.101Z,7.50
2022-10-23T16:04:21.286Z,6.40
2022-10-23T16:06:48.640Z,6.78
2022-10-23T16:09:16.004Z,6.57
2022-10-23T16:11:43.683Z,6.72
2022-10-23T16:14:14.460Z,6.50
2022-10-23T16:16:41.314Z,6.35
2022-10-23T16:19:08.334Z,8.57
2022-10-23T16:21:36.515Z,8.38
2022-10-23T16:24:05.428Z,7.75
2022-10-23T16:26:32.310Z,7.43
2022-10-23T16:29:01.594Z,7.05
2022-10-23T16:31:29.574Z,6.53
2022-10-23T16:34:00.929Z,6.50
2022-10-23T16:36:28.169Z,5.82
2022-10-23T16:39:20.858Z,5.95
2022-10-23T16:42:06.085Z,5.30
2022-10-23T16:45:05.481Z,5.65
2022-10-23T16:47:32.722Z,6.20
2022-10-23T16:49:59.640Z,6.88
2022-10-23T16:52:27.841Z,7.10
2022-10-23T16:54:54.401Z,7.45
2022-10-23T16:57:20.967Z,10.25
2022-10-23T16:59:47.588Z,9.57
2022-10-23T17:02:14.665Z,8.60
2022-10-23T17:04:41.341Z,8.40
2022-10-23T17:07:08.044Z,7.82
2022-10-23T17:09:35.728Z,12.10
2022-10-23T17:12:02.412Z,9.40
2022-10-23T17:14:29.362Z,11.30
2022-10-23T17:17:05.596Z,14.80
2022-10-23T17:19:44.159Z,10.43
2022-10-23T17:22:12.690Z,8.07
2022-10-23T17:24:41.440Z,7.75
2022-10-23T17:27:08.478Z,7.60
2022-10-23T17:29:36.027Z,6.65
2022-10-23T17:32:03.159Z,6.45
2022-10-23T17:34:29.747Z,6.70
2022-10-23T17:36:56.599Z,6.82
2022-10-23T17:39:26.234Z,6.90
2022-10-23T17:41:53.686Z,6.93
2022-10-23T17:44:22.437Z,6.95
2022-10-23T17:46:53.829Z,7.90
2022-10-23T17:49:21.859Z,8.38
2022-10-23T17:51:55.994Z,7.75
2022-10-23T17:54:23.515Z,8.73
2022-10-23T17:56:50.135Z,9.48
2022-10-23T17:59:22.395Z,8.75
2022-10-23T18:01:49.906Z,8.63
2022-10-23T18:04:18.877Z,7.60
2022-10-23T18:06:48.485Z,7.97
2022-10-23T18:09:15.378Z,7.43
2022-10-23T18:11:48.147Z,8.27
2022-10-23T18:14:19.234Z,10.25
2022-10-23T18:16:46.211Z,14.57
2022-10-23T18:19:14.139Z,12.68
2022-10-23T18:21:40.863Z,12.63
2022-10-23T18:24:07.893Z,13.00
2022-10-23T18:26:35.177Z,13.77
2022-10-23T18:29:04.895Z,13.20
2022-10-23T18:31:31.592Z,12.48
2022-10-23T18:34:07.861Z,11.30
2022-10-23T18:36:39.689Z,10.68
2022-10-23T18:39:08.224Z,11.13
2022-10-23T18:41:37.758Z,11.75
2022-10-23T18:44:04.698Z,11.25
2022-10-23T18:46:32.022Z,13.00
2022-10-23T18:48:58.863Z,10.93
2022-10-23T18:51:28.318Z,9.52
2022-10-23T18:53:55.709Z,9.52
2022-10-23T18:56:25.946Z,9.60
2022-10-23T18:59:01.733Z,9.38
2022-10-23T19:01:30.731Z,8.13
2022-10-23T19:03:59.455Z,8.80
2022-10-23T19:06:26.583Z,7.38
2022-10-23T19:08:53.598Z,7.20
2022-10-23T19:11:22.482Z,7.20
2022-10-23T19:13:49.094Z,7.00
2022-10-23T19:16:27.992Z,6.60
2022-10-23T19:19:26.655Z,6.72
2022-10-23T19:21:54.320Z,6.13
2022-10-23T19:24:25.327Z,6.85
2022-10-23T19:26:52.135Z,5.65
2022-10-23T19:29:21.625Z,5.97
2022-10-23T19:31:49.330Z,6.30
2022-10-23T19:34:22.502Z,6.50
2022-10-23T19:36:50.709Z,5.82
2022-10-23T19:39:17.517Z,6.35
2022-10-23T19:41:44.841Z,6.60
2022-10-23T19:44:13.115Z,6.65
2022-10-23T19:46:40.034Z,6.68
2022-10-23T19:49:06.951Z,6.18
2022-10-23T19:51:33.528Z,6.45
2022-10-23T19:54:00.332Z,6.60
2022-10-23T19:56:27.303Z,6.28
2022-10-23T19:58:54.059Z,7.40
2022-10-23T20:01:24.383Z,7.68
2022-10-23T20:03:51.452Z,6.60
2022-10-23T20:06:21.027Z,6.80
2022-10-23T20:08:47.926Z,7.13
2022-10-23T20:11:20.657Z,8.23
2022-10-23T20:16:28.826Z,8.45
2022-10-23T20:18:56.262Z,8.98
2022-10-23T20:21:24.379Z,8.60
2022-10-23T20:23:51.386Z,8.43
2022-10-23T20:26:21.203Z,9.13
2022-10-23T20:28:51.289Z,10.07
2022-10-23T20:31:19.509Z,8.95
2022-10-23T20:33:46.670Z,9.27
2022-10-23T20:36:28.165Z,9.15
2022-10-23T20:38:56.395Z,8.45
2022-10-23T20:41:24.981Z,9.35
2022-10-23T20:43:51.743Z,8.82
2022-10-23T20:46:18.411Z,8.50
2022-10-23T20:48:45.640Z,9.25
2022-10-23T20:51:15.751Z,9.57
2022-10-23T20:53:43.150Z,9.32
2022-10-23T20:56:16.205Z,8.82
2022-10-23T20:58:43.440Z,9.90
2022-10-23T21:01:13.175Z,9.05
2022-10-23T21:03:39.972Z,9.57
2022-10-23T21:06:12.950Z,9.52
2022-10-23T21:08:40.498Z,8.90
2022-10-23T21:11:10.332Z,9.10
2022-10-23T21:13:37.113Z,10.10
2022-10-23T21:16:15.757Z,9.35
2022-10-23T21:18:46.918Z,9.02
2022-10-23T21:21:19.262Z,10.13
2022-10-23T21:23:47.457Z,9.20
2022-10-23T21:26:15.166Z,9.70
2022-10-23T21:28:50.877Z,9.20
2022-10-23T21:31:27.734Z,8.93
2022-10-23T21:33:54.293Z,10.02
2022-10-23T21:36:23.678Z,9.55
2022-10-23T21:38:56.294Z,9.43
2022-10-23T21:41:26.308Z,9.85
2022-10-23T21:43:54.849Z,10.10
2022-10-23T21:46:22.570Z,9.73
2022-10-23T21:48:49.690Z,10.80
2022-10-23T21:51:23.944Z,11.60
2022-10-23T21:53:52.581Z,11.88
2022-10-23T21:56:24.801Z,11.80
2022-10-23T21:58:51.873Z,10.15
2022-10-23T22:01:18.529Z,10.77
2022-10-23T22:03:45.158Z,10.52
2022-10-23T22:06:21.115Z,10.65
2022-10-23T22:08:48.142Z,10.52
2022-10-23T22:11:15.973Z,10.35
2022-10-23T22:13:43.713Z,9.55
2022-10-23T22:16:11.096Z,9.50
2022-10-23T22:18:37.782Z,10.00
2022-10-23T22:21:08.489Z,10.02
2022-10-23T22:23:35.415Z,10.25
2022-10-23T22:26:07.195Z,10.02
2022-10-23T22:28:33.840Z,8.90
2022-10-23T22:31:01.742Z,9.80
2022-10-23T22:33:29.157Z,9.05
2022-10-23T22:36:02.857Z,9.70
2022-10-23T22:38:31.710Z,9.63
2022-10-23T22:41:02.008Z,9.30
2022-10-23T22:43:29.271Z,10.07
2022-10-23T22:46:07.265Z,10.48
2022-10-23T22:48:34.757Z,9.85
2022-10-23T22:51:01.842Z,10.30
2022-10-23T22:53:28.607Z,10.52
2022-10-23T22:55:56.226Z,9.90
2022-10-23T22:58:24.228Z,9.88
2022-10-23T23:00:52.264Z,9.65
2022-10-23T23:03:19.065Z,9.50
2022-10-23T23:05:47.813Z,8.88
2022-10-23T23:08:15.140Z,8.95
2022-10-23T23:10:41.747Z,9.02
2022-10-23T23:13:08.350Z,9.60
2022-10-23T23:15:40.994Z,8.48
2022-10-23T23:18:07.682Z,9.00
2022-10-23T23:20:35.352Z,8.80
2022-10-23T23:23:02.129Z,8.75
2022-10-23T23:25:29.406Z,8.70
2022-10-23T23:27:56.401Z,9.55
2022-10-23T23:30:23.895Z,8.60
2022-10-23T23:32:52.559Z,9.32
2022-10-23T23:35:20.818Z,8.60
2022-10-23T23:37:47.456Z,8.15
2022-10-23T23:40:14.494Z,9.18
2022-10-23T23:42:41.211Z,11.35
2022-10-23T23:45:14.599Z,10.07
2022-10-23T23:47:42.343Z,8.88
2022-10-23T23:50:11.514Z,8.48
2022-10-23T23:52:38.641Z,8.00
2022-10-23T23:55:05.546Z,8.25
2022-10-23T23:57:32.320Z,8.95
2022-10-23T23:59:59.915Z,8.20
